AirNav   Everest Fuels
 
 1051 users online  

3J1 Ridgeland-Claude Dean Airport
Ridgeland, South Carolina, USA

GOING TO RIDGELAND?


FAA INFORMATION EFFECTIVE 25 FEBRUARY 2021

Location

FAA Identifier: 3J1
Lat/Long: 32-29-48.6620N 080-59-35.3360W
32-29.811033N 080-59.588933W
32.4968506,-80.9931489
(estimated)
Elevation: 84.8 ft. / 25.8 m (surveyed)
Variation: 04W (1985)
From city: 1 mile NW of RIDGELAND, SC
Time zone: UTC -5 (UTC -4 during Daylight Saving Time)
Zip code: 29936

Airport Operations

Airport use: Open to the public
Activation date: 12/1942
Control tower: no
ARTCC: JACKSONVILLE CENTER
FSS: ANDERSON FLIGHT SERVICE STATION
NOTAMs facility: AND (NOTAM-D service available)
Attendance: UNATNDD OR IREG
Wind indicator: lighted
Segmented circle: yes
Lights: MIRL RWY 18/36 PRESET LOW INTST; TO INCR INTST REIL RWY 18 - CTAF.
Beacon: white-green (lighted land airport)
Operates sunset to sunrise.

Airport Communications

CTAF/UNICOM: 123.075
WX AWOS-3 at ARW (19 nm E): 119.675 (843-524-1000)

Nearby radio navigation aids

VOR radial/distance  VOR name  Freq  Var
SAVr032/23.5SAVANNAH VORTAC115.9506W
SVNr016/30.0HUNTER VOR/DME111.6002W
ALDr155/(34.4)ALLENDALE VOR116.7001W

 
NDB name  Hdg/Dist  Freq  Var  ID
SYLVANIA114/31.724507WJYL .--- -.-- .-..

Airport Services

Fuel available: 100LL
Parking: tiedowns
Airframe service: MAJOR
Powerplant service: MAJOR
Bottled oxygen: NONE
Bulk oxygen: NONE

Runway Information

Runway 18/36

Dimensions: 4200 x 75 ft. / 1280 x 23 m
Surface: asphalt, in excellent condition
Weight bearing capacity: 
Single wheel: 30.0
Double wheel: 45.0
Runway edge lights: medium intensity
RUNWAY 18  RUNWAY 36
Latitude: 32-30.156428N32-29.465642N
Longitude: 080-59.558953W080-59.618908W
Elevation: 84.8 ft.74.9 ft.
Traffic pattern: leftleft
Runway heading: 188 magnetic, 184 true008 magnetic, 004 true
Markings: basic, in good conditionbasic, in good condition
Visual slope indicator: 2-light PAPI on left (3.00 degrees glide path)2-light PAPI on left (3.00 degrees glide path)
Runway end identifier lights: yesyes
Touchdown point: yes, no lightsyes, no lights

Airport Ownership and Management from official FAA records

Ownership: Publicly-owned
Owner: COUNTY OF JASPER
P.O. BOX 1149
RIDGELAND, SC 29936-8785
Phone (843) 717-3690
Manager: DANNY LUCAS
134 AIRPORT RD
RIDGELAND, SC 29936
Phone (843) 929-4159

Airport Operational Statistics

Aircraft based on the field: 65
Single engine airplanes: 57
Multi engine airplanes: 4
Gliders airplanes: 4
    
Aircraft operations: avg 23/day *
84% local general aviation
13% transient general aviation
3% military
* for 12-month period ending 30 June 2020

Additional Remarks

A56-36 50 FT TREES 100-150 FT RIGHT OF CNTRLN 1000 FT FM THLD.
GLIDER OPNS INVOF ARPT.
FOR CD CTC SAVANNAH APCH AT 912-964-3205, WHEN APCH CLSD CTC JACKSONVILLE ARTCC AT 904-845-1592.

Instrument Procedures

There are no published instrument procedures at 3J1.

Some nearby airports with instrument procedures:

KNBC - Beaufort Marine Corps Air Station (Merritt Field) (14 nm E)
KARW - Beaufort Executive Airport (19 nm E)
KHXD - Hilton Head Airport (22 nm SE)
KSAV - Savannah/Hilton Head International Airport (25 nm SW)
KSVN - Hunter Army Airfield (30 nm S)
 
Loc | Ops | Rwys | IFR | FBO | Links
Com | Nav | Svcs | Stats | Notes
Area around 3J1 (Ridgeland-Claude Dean Airport)
 
Road maps at: MapQuest Bing Google
 
Aerial photo
WARNING: Photo may not be current or correct
Aerial photo of 3J1 (Ridgeland-Claude Dean Airport)
Photo by H. Mikell Anderson
Photo taken 20-Nov-2020
looking south.

Do you have a better or more recent aerial photo of Ridgeland-Claude Dean Airport that you would like to share? If so, please send us your photo.

 
Sectional chart

 
Airport distance calculator
Flying to Ridgeland-Claude Dean Airport? Find the distance to fly.

From to 3J1

Sunrise and sunset
Times for 06-Mar-2021
 Local
(UTC-5)
 Zulu
(UTC)
Morning civil twilight06:2211:22
Sunrise06:4711:47
Sunset18:2423:24
Evening civil twilight18:4923:49

Current date and time
Zulu (UTC)  06-Mar-2021 18:51:16
Local (UTC-5)  06-Mar-2021 13:51:16
 
METAR
KNBC 
14nm E 
061756Z AUTO 03014KT 10SM BKN110 08/01 A3021 RMK AO2 SLP231 T00830006 10100 20083 58003
KARW 
19nm E 
061835Z AUTO 02014G19KT 10SM SCT070 SCT080 08/01 A3018 RMK AO2
KHXD 
22nm SE 
061750Z 03019KT 10SM CLR 10/01 A3019
KSAV 
25nm SW 
061753Z 04011KT 10SM BKN110 OVC210 12/01 A3018 RMK AO2 SLP219 T01170011 10117 20111 58007
TAF
KNBC 
14nm E 
0521/0621 VRB05KT 9999 SCT150 QNH3002INS BECMG 0601/0603 06006KT 9999 BKN120 QNH3009INS FM061400 03010KT 9999 SKC QNH3018INS T06/0509Z T15/0620Z LAST NO AMDS AFT 0521/ NEXT 0715
NOTAMs
Click for the latest NOTAMs
NOTAMs are issued by the DoD/FAA and will open in a separate window not controlled by AirNav.

 

 
 

FBO, Fuel Providers, and Aircraft Ground Support

  
 Business Name 
 
 Contact 
 
 Services / Description 
 
Fuel Prices
 
Comments
  
AircraftConstructor Inc 912-598-1215
[email]
Aviation fuel

More info about AircraftConstructor Inc
Phillips 66
100LL
SS $4.98 
 Updated 16-Feb-2021
 
   write
SS=Self service
Update Fuel Prices
 

Aviation Businesses, Services, and Facilities

  
 Business Name 
 
 Contact 
 
 Services / Description 
 
Distance
 
Comments
  
GUNZ Aviation 843-441-3867
843-816-4612
[email]
Aircraft maintenance, Aircraft modifications, Aircraft parts

More info about GUNZ Aviation
on airport  
   write
 

Would you like to see your business listed on this page?

 If your business provides an interesting product or service to pilots, flight crews, aircraft, or users of the Ridgeland-Claude Dean Airport, you should consider listing it here.  To start the listing process, click on the button below
 
Add a business
 

Other Pages about Ridgeland-Claude Dean Airport

www.jaspercountysc.gov/...
 
Update a link
 
Copyright © AirNav, LLC. All rights reserved. Privacy Policy  Contact